createdAt,value
2018-11-22T00:01:52.840Z,83.53
2018-11-22T00:04:24.384Z,80.83
2018-11-22T00:06:55.991Z,83.83
2018-11-22T00:09:27.437Z,82.60
2018-11-22T00:11:58.141Z,85.40
2018-11-22T00:14:28.852Z,78.00
2018-11-22T00:17:00.605Z,81.73
2018-11-22T00:19:31.482Z,94.33
2018-11-22T00:22:02.182Z,93.30
2018-11-22T00:24:32.844Z,89.60
2018-11-22T00:27:03.489Z,101.57
2018-11-22T00:29:34.101Z,94.97
2018-11-22T00:32:06.219Z,97.57
2018-11-22T00:34:36.846Z,96.23
2018-11-22T00:37:07.976Z,101.17
2018-11-22T00:39:38.566Z,98.27
2018-11-22T00:42:09.539Z,104.93
2018-11-22T00:44:41.066Z,100.97
2018-11-22T00:47:13.060Z,100.77
2018-11-22T00:49:44.429Z,105.83
2018-11-22T00:52:15.919Z,104.30
2018-11-22T00:54:46.989Z,107.50
2018-11-22T00:57:18.076Z,108.43
2018-11-22T00:59:50.143Z,114.53
2018-11-22T01:02:21.257Z,101.67
2018-11-22T01:04:51.868Z,117.03
2018-11-22T01:07:22.628Z,101.50
2018-11-22T01:09:53.209Z,116.87
2018-11-22T01:12:24.565Z,116.23
2018-11-22T01:14:55.193Z,108.07
2018-11-22T01:17:25.789Z,117.10
2018-11-22T01:19:56.375Z,114.17
2018-11-22T01:22:27.832Z,120.53
2018-11-22T01:24:58.984Z,113.00
2018-11-22T01:27:29.664Z,106.30
2018-11-22T01:30:00.440Z,108.87
2018-11-22T01:32:31.137Z,118.33
2018-11-22T01:35:01.734Z,99.27
2018-11-22T01:37:32.379Z,102.50
2018-11-22T01:40:02.976Z,116.00
2018-11-22T01:42:33.849Z,96.57
2018-11-22T01:45:04.502Z,116.93
2018-11-22T01:47:35.417Z,108.53
2018-11-22T01:50:10.182Z,112.53
2018-11-22T01:52:41.274Z,102.83
2018-11-22T01:55:13.540Z,102.67
2018-11-22T01:57:44.554Z,103.70
2018-11-22T02:00:27.805Z,110.50
2018-11-22T02:03:00.255Z,105.07
2018-11-22T02:05:30.838Z,105.27
2018-11-22T02:08:01.411Z,108.20
2018-11-22T02:10:31.996Z,95.10
2018-11-22T02:13:02.637Z,93.93
2018-11-22T02:15:33.323Z,93.53
2018-11-22T02:18:04.087Z,99.27
2018-11-22T02:20:34.679Z,98.03
2018-11-22T02:23:05.746Z,100.17
2018-11-22T02:25:39.124Z,88.87
2018-11-22T02:28:09.833Z,98.50
2018-11-22T02:30:40.407Z,106.17
2018-11-22T02:33:13.336Z,96.00
2018-11-22T02:35:43.955Z,101.10
2018-11-22T02:38:14.605Z,98.80
2018-11-22T02:40:45.233Z,97.17
2018-11-22T02:43:16.054Z,110.23
2018-11-22T02:45:46.729Z,103.93
2018-11-22T02:48:17.548Z,101.43
2018-11-22T02:50:48.311Z,93.93
2018-11-22T02:53:19.017Z,106.40
2018-11-22T02:55:49.642Z,105.17
2018-11-22T02:58:20.397Z,101.70
2018-11-22T03:00:51.061Z,117.57
2018-11-22T03:03:22.202Z,104.97
2018-11-22T03:05:52.742Z,122.47
2018-11-22T03:08:23.424Z,110.43
2018-11-22T03:10:54.326Z,116.90
2018-11-22T03:13:25.006Z,119.50
2018-11-22T03:15:55.569Z,111.53
2018-11-22T03:18:26.309Z,104.30
2018-11-22T03:20:58.813Z,110.43
2018-11-22T03:23:29.819Z,104.63
2018-11-22T03:26:00.647Z,108.30
2018-11-22T03:28:31.292Z,110.20
2018-11-22T03:31:01.950Z,113.60
2018-11-22T03:33:33.003Z,107.77
2018-11-22T03:36:03.581Z,113.57
2018-11-22T03:38:34.502Z,110.63
2018-11-22T03:41:05.122Z,105.43
2018-11-22T03:43:36.103Z,121.33
2018-11-22T03:46:06.909Z,107.10
2018-11-22T03:48:37.586Z,116.03
2018-11-22T03:51:08.208Z,99.87
2018-11-22T03:53:38.920Z,93.37
2018-11-22T03:56:09.598Z,105.93
2018-11-22T03:58:40.253Z,110.40
2018-11-22T04:01:10.832Z,101.60
2018-11-22T04:03:42.144Z,106.40
2018-11-22T04:06:12.715Z,104.47
2018-11-22T04:08:43.340Z,108.57
2018-11-22T04:11:13.974Z,94.37
2018-11-22T04:13:44.752Z,105.07
2018-11-22T04:16:15.486Z,115.53
2018-11-22T04:18:46.885Z,91.27
2018-11-22T04:21:17.468Z,116.00
2018-11-22T04:23:48.179Z,106.10
2018-11-22T04:26:24.015Z,105.80
2018-11-22T04:28:51.311Z,114.60
2018-11-22T04:31:21.867Z,116.73
2018-11-22T04:33:53.394Z,110.27
2018-11-22T04:36:23.977Z,105.80
2018-11-22T04:38:54.765Z,114.87
2018-11-22T04:41:25.323Z,97.30
2018-11-22T04:43:56.195Z,121.23
2018-11-22T04:46:26.998Z,112.10
2018-11-22T04:48:57.798Z,109.97
2018-11-22T04:51:28.621Z,115.80
2018-11-22T04:54:00.241Z,116.37
2018-11-22T04:56:30.850Z,106.90
2018-11-22T04:59:01.551Z,119.67
2018-11-22T05:01:32.835Z,106.77
2018-11-22T05:04:04.010Z,121.60
2018-11-22T05:06:36.754Z,111.93
2018-11-22T05:09:11.091Z,112.83
2018-11-22T05:11:41.673Z,115.03
2018-11-22T05:14:12.749Z,117.40
2018-11-22T05:16:43.502Z,115.07
2018-11-22T05:19:14.312Z,112.93
2018-11-22T05:21:45.081Z,121.20
2018-11-22T05:24:15.708Z,129.10
2018-11-22T05:26:46.622Z,122.13
2018-11-22T05:29:17.363Z,121.67
2018-11-22T05:31:47.991Z,113.87
2018-11-22T05:34:18.954Z,115.03
2018-11-22T05:37:03.412Z,110.60
2018-11-22T05:39:41.943Z,117.47
2018-11-22T05:42:16.422Z,122.57
2018-11-22T05:44:47.568Z,122.20
2018-11-22T05:47:18.916Z,124.10
2018-11-22T05:49:49.556Z,118.60
2018-11-22T05:52:20.188Z,103.77
2018-11-22T05:54:50.985Z,110.07
2018-11-22T05:57:21.636Z,107.70
2018-11-22T05:59:52.541Z,117.07
2018-11-22T06:02:25.534Z,122.97
2018-11-22T06:04:57.063Z,114.77
2018-11-22T06:07:27.644Z,123.47
2018-11-22T06:09:59.448Z,113.07
2018-11-22T06:12:30.039Z,102.80
2018-11-22T06:15:01.651Z,117.23
2018-11-22T06:17:32.389Z,117.43
2018-11-22T06:20:03.213Z,113.87
2018-11-22T06:22:35.997Z,105.23
2018-11-22T06:25:08.246Z,117.40
2018-11-22T06:27:39.239Z,104.50
2018-11-22T06:30:23.854Z,101.10
2018-11-22T06:32:56.565Z,107.10
2018-11-22T06:35:27.745Z,108.40
2018-11-22T06:37:59.678Z,105.73
2018-11-22T06:43:27.970Z,107.77
2018-11-22T06:45:59.308Z,109.73
2018-11-22T06:48:30.970Z,107.07
2018-11-22T06:51:06.294Z,105.10
2018-11-22T06:53:37.233Z,99.43
2018-11-22T06:56:08.113Z,102.73
2018-11-22T06:58:38.766Z,101.30
2018-11-22T07:01:12.064Z,102.97
2018-11-22T07:03:43.001Z,93.80
2018-11-22T07:06:14.063Z,104.07
2018-11-22T07:08:45.761Z,101.80
2018-11-22T07:11:19.708Z,98.40
2018-11-22T07:13:50.365Z,98.53
2018-11-22T07:16:21.139Z,98.93
2018-11-22T07:18:51.750Z,102.27
2018-11-22T07:21:22.332Z,106.33
2018-11-22T07:23:52.940Z,105.90
2018-11-22T07:26:23.778Z,102.80
2018-11-22T07:28:54.660Z,105.03
2018-11-22T07:31:25.384Z,100.93
2018-11-22T07:33:56.727Z,92.70
2018-11-22T07:36:27.268Z,93.17
2018-11-22T07:39:07.225Z,107.20
2018-11-22T07:41:40.002Z,100.90
2018-11-22T07:44:10.567Z,105.83
2018-11-22T07:46:41.125Z,95.60
2018-11-22T07:49:11.863Z,93.50
2018-11-22T07:51:42.965Z,98.93
2018-11-22T07:54:15.719Z,90.13
2018-11-22T07:56:46.302Z,93.20
2018-11-22T07:59:16.914Z,106.83
2018-11-22T08:01:47.596Z,94.67
2018-11-22T08:04:18.154Z,94.87
2018-11-22T08:06:48.869Z,95.27
2018-11-22T08:09:19.613Z,95.87
2018-11-22T08:11:50.326Z,93.60
2018-11-22T08:14:20.829Z,94.00
2018-11-22T08:16:51.413Z,87.33
2018-11-22T08:19:22.014Z,99.17
2018-11-22T08:21:52.629Z,94.47
2018-11-22T08:24:24.108Z,92.53
2018-11-22T08:26:54.739Z,98.83
2018-11-22T08:29:25.587Z,91.13
2018-11-22T08:31:56.248Z,91.23
2018-11-22T08:34:26.798Z,96.57
2018-11-22T08:36:57.388Z,96.97
2018-11-22T08:39:28.136Z,97.50
2018-11-22T08:41:59.877Z,97.50
2018-11-22T08:44:30.508Z,96.30
2018-11-22T08:47:01.172Z,94.73
2018-11-22T08:49:31.800Z,93.07
2018-11-22T08:52:02.435Z,93.53
2018-11-22T08:54:32.984Z,87.57
2018-11-22T08:57:03.538Z,92.00
2018-11-22T08:59:34.501Z,91.50
2018-11-22T09:02:05.234Z,93.80
2018-11-22T09:04:35.882Z,79.80
2018-11-22T09:07:07.838Z,88.23
2018-11-22T09:10:02.456Z,84.07
2018-11-22T09:13:22.629Z,79.80
2018-11-22T09:15:57.156Z,89.07
2018-11-22T09:18:27.758Z,96.53
2018-11-22T09:21:05.348Z,94.50
2018-11-22T09:23:38.570Z,87.40
2018-11-22T09:26:07.779Z,87.17
2018-11-22T09:28:38.396Z,90.03
2018-11-22T09:31:09.082Z,87.10
2018-11-22T09:34:00.353Z,85.47
2018-11-22T09:37:02.142Z,91.73
2018-11-22T09:39:37.189Z,96.67
2018-11-22T09:42:07.794Z,84.13
2018-11-22T09:44:39.321Z,87.23
2018-11-22T09:47:09.894Z,88.40
2018-11-22T09:49:43.840Z,94.33
2018-11-22T09:52:21.803Z,84.57
2018-11-22T09:55:02.663Z,93.23
2018-11-22T09:57:33.560Z,99.60
2018-11-22T10:00:16.277Z,90.37
2018-11-22T10:02:53.325Z,90.83
2018-11-22T10:05:50.658Z,95.20
2018-11-22T10:08:36.038Z,88.90
2018-11-22T10:14:02.874Z,95.97
2018-11-22T10:16:34.684Z,90.27
2018-11-22T10:19:05.234Z,87.77
2018-11-22T10:21:35.903Z,89.87
2018-11-22T10:24:07.556Z,92.57
2018-11-22T10:26:38.103Z,89.80
2018-11-22T10:29:08.857Z,90.53
2018-11-22T12:16:00.614Z,99.87
2018-11-22T12:18:36.647Z,103.30
2018-11-22T12:20:59.992Z,89.07
2018-11-22T12:23:29.435Z,94.60
2018-11-22T12:25:58.804Z,93.10
2018-11-22T12:28:28.210Z,95.00
2018-11-22T12:31:06.093Z,90.50
2018-11-22T12:33:44.491Z,109.13
2018-11-22T12:36:19.198Z,102.90
2018-11-22T12:38:49.535Z,97.50
2018-11-22T12:41:19.177Z,99.40
2018-11-22T12:43:48.901Z,91.60
2018-11-22T12:46:18.342Z,93.27
2018-11-22T12:48:47.665Z,92.30
2018-11-22T12:51:18.019Z,96.27
2018-11-22T12:53:47.525Z,96.40
2018-11-22T12:56:17.790Z,99.97
2018-11-22T12:58:47.182Z,103.10
2018-11-22T13:01:16.525Z,99.83
2018-11-22T13:03:46.225Z,104.93
2018-11-22T13:06:15.826Z,101.07
2018-11-22T13:08:45.154Z,116.47
2018-11-22T13:11:14.561Z,96.13
2018-11-22T13:13:44.027Z,103.50
2018-11-22T13:16:13.737Z,99.57
2018-11-22T13:18:43.113Z,98.53
2018-11-22T13:21:12.888Z,106.87
2018-11-22T13:23:47.371Z,111.60
2018-11-22T13:26:18.055Z,102.27
2018-11-22T13:28:47.587Z,104.60
2018-11-22T13:31:17.512Z,100.67
2018-11-22T13:33:46.780Z,111.17
2018-11-22T13:36:16.195Z,108.47
2018-11-22T13:38:46.047Z,117.00
2018-11-22T13:41:25.663Z,110.57
2018-11-22T13:43:55.643Z,108.40
2018-11-22T13:46:28.898Z,112.10
2018-11-22T13:48:58.302Z,119.57
2018-11-22T13:51:28.784Z,121.10
2018-11-22T13:54:02.245Z,109.17
2018-11-22T13:56:33.526Z,115.83
2018-11-22T13:59:03.005Z,108.73
2018-11-22T14:01:34.367Z,116.93
2018-11-22T14:04:04.826Z,123.50
2018-11-22T14:06:34.611Z,110.10
2018-11-22T14:09:08.416Z,121.60
2018-11-22T14:11:39.899Z,123.13
2018-11-22T14:14:14.874Z,105.17
2018-11-22T14:16:53.215Z,101.50
2018-11-22T14:19:27.401Z,114.50
2018-11-22T14:21:56.778Z,108.67
2018-11-22T14:24:30.630Z,110.60
2018-11-22T14:27:01.296Z,115.67
2018-11-22T14:29:32.865Z,117.43
2018-11-22T14:32:03.074Z,114.77
2018-11-22T14:34:36.934Z,120.17
2018-11-22T14:37:06.387Z,112.27
2018-11-22T14:39:36.150Z,124.03
2018-11-22T14:42:06.776Z,115.70
2018-11-22T14:44:36.512Z,120.57
2018-11-22T14:47:07.190Z,125.60
2018-11-22T14:49:36.556Z,114.80
2018-11-22T14:52:06.848Z,122.23
2018-11-22T14:54:36.129Z,121.90
2018-11-22T14:57:05.558Z,107.67
2018-11-22T14:59:38.041Z,101.93
2018-11-22T15:02:08.476Z,130.10
2018-11-22T15:04:37.840Z,128.33
2018-11-22T15:07:07.129Z,117.47
2018-11-22T15:09:37.061Z,118.10
2018-11-22T15:12:06.920Z,129.83
2018-11-22T15:14:36.421Z,126.97
2018-11-22T15:17:06.222Z,125.70
2018-11-22T15:19:35.846Z,124.33
2018-11-22T15:22:05.606Z,118.93
2018-11-22T15:24:35.476Z,128.47
2018-11-22T15:27:04.934Z,115.57
2018-11-22T15:29:34.999Z,129.13
2018-11-22T15:32:05.167Z,115.30
2018-11-22T15:34:34.946Z,121.50
2018-11-22T15:37:05.515Z,123.43
2018-11-22T15:39:35.073Z,136.33
2018-11-22T15:42:05.188Z,117.17
2018-11-22T15:44:34.656Z,119.63
2018-11-22T15:47:04.046Z,120.47
2018-11-22T15:49:33.732Z,117.73
2018-11-22T15:52:03.338Z,122.87
2018-11-22T15:54:32.905Z,133.10
2018-11-22T15:57:03.230Z,130.37
2018-11-22T15:59:32.857Z,115.90
2018-11-22T16:02:03.908Z,131.47
2018-11-22T16:04:33.269Z,122.13
2018-11-22T16:07:02.832Z,123.77
2018-11-22T16:09:32.392Z,129.73
2018-11-22T16:12:01.704Z,126.53
2018-11-22T16:14:35.513Z,117.47
2018-11-22T16:17:07.098Z,117.67
2018-11-22T16:19:37.701Z,110.10
2018-11-22T16:22:07.139Z,117.80
2018-11-22T16:24:37.192Z,119.83
2018-11-22T16:27:07.072Z,108.90
2018-11-22T16:29:37.318Z,115.47
2018-11-22T16:32:07.895Z,115.43
2018-11-22T16:34:37.679Z,106.10
2018-11-22T16:37:08.490Z,105.93
2018-11-22T16:39:39.306Z,99.97
2018-11-22T16:42:08.776Z,111.03
2018-11-22T16:44:38.143Z,106.07
2018-11-22T16:47:08.822Z,110.00
2018-11-22T16:49:38.167Z,124.03
2018-11-22T16:52:07.449Z,116.70
2018-11-22T16:54:37.032Z,108.50
2018-11-22T16:57:21.492Z,111.70
2018-11-22T16:59:51.670Z,109.90
2018-11-22T17:02:23.812Z,106.13
2018-11-22T17:04:53.161Z,107.67
2018-11-22T17:07:22.625Z,98.70
2018-11-22T17:09:53.539Z,105.17
2018-11-22T17:12:22.950Z,107.53
2018-11-22T17:14:52.884Z,105.83
2018-11-22T17:17:23.647Z,110.30
2018-11-22T17:19:54.651Z,109.83
2018-11-22T17:22:28.071Z,102.60
2018-11-22T17:24:57.580Z,106.43
2018-11-22T17:27:29.089Z,108.60
2018-11-22T17:30:11.227Z,99.70
2018-11-22T17:32:35.276Z,102.57
2018-11-22T17:35:05.539Z,94.50
2018-11-22T17:37:35.215Z,101.93
2018-11-22T17:40:09.573Z,100.07
2018-11-22T17:42:39.160Z,104.73
2018-11-22T17:45:11.062Z,109.73
2018-11-22T17:47:40.517Z,107.70
2018-11-22T17:50:13.473Z,104.73
2018-11-22T17:52:45.194Z,104.97
2018-11-22T17:55:19.613Z,100.87
2018-11-22T17:57:49.375Z,102.27
2018-11-22T18:00:27.714Z,102.40
2018-11-22T18:02:58.411Z,99.93
2018-11-22T18:05:28.666Z,100.00
2018-11-22T18:07:59.124Z,95.30
2018-11-22T18:10:30.458Z,96.43
2018-11-22T18:13:00.677Z,93.60
2018-11-22T18:15:31.806Z,104.93
2018-11-22T18:18:01.541Z,111.43
2018-11-22T18:20:31.767Z,106.10
2018-11-22T18:23:02.144Z,106.63
2018-11-22T18:25:33.233Z,99.93
2018-11-22T18:28:04.084Z,101.20
2018-11-22T18:30:35.183Z,101.87
2018-11-22T18:33:06.130Z,110.53
2018-11-22T18:35:36.286Z,105.10
2018-11-22T18:38:06.023Z,106.07
2018-11-22T18:40:37.999Z,103.63
2018-11-22T18:43:08.292Z,111.87
2018-11-22T18:45:39.096Z,100.67
2018-11-22T18:48:10.053Z,106.13
2018-11-22T18:50:41.588Z,98.33
2018-11-22T18:53:11.442Z,97.90
2018-11-22T18:55:40.702Z,107.93
2018-11-22T18:58:10.321Z,104.83
2018-11-22T19:00:42.076Z,97.63
2018-11-22T19:03:13.346Z,103.67
2018-11-22T19:05:42.615Z,107.00
2018-11-22T19:08:12.006Z,102.23
2018-11-22T19:10:42.718Z,101.83
2018-11-22T19:13:12.742Z,106.73
2018-11-22T19:15:44.617Z,108.60
2018-11-22T19:18:14.728Z,104.53
2018-11-22T19:20:44.728Z,108.60
2018-11-22T19:23:15.115Z,102.53
2018-11-22T19:25:44.456Z,116.97
2018-11-22T19:28:13.771Z,100.30
2018-11-22T19:30:44.619Z,109.03
2018-11-22T19:33:15.763Z,107.77
2018-11-22T19:35:46.713Z,108.17
2018-11-22T19:38:16.278Z,107.80
2018-11-22T19:40:45.621Z,105.00
2018-11-22T19:43:15.013Z,121.93
2018-11-22T19:45:46.235Z,114.53
2018-11-22T19:48:15.630Z,116.13
2018-11-22T19:50:50.083Z,118.07
2018-11-22T19:53:20.244Z,114.17
2018-11-22T19:55:49.616Z,104.03
2018-11-22T19:58:24.888Z,118.73
2018-11-22T20:00:55.484Z,116.10
2018-11-22T20:03:24.789Z,135.20
2018-11-22T20:05:54.204Z,118.83
2018-11-22T20:08:29.725Z,125.07
2018-11-22T20:10:59.063Z,130.80
2018-11-22T20:14:04.752Z,123.83
2018-11-22T20:16:37.032Z,110.90
2018-11-22T20:19:07.166Z,124.60
2018-11-22T20:21:37.966Z,126.50
2018-11-22T20:24:08.357Z,132.53
2018-11-22T20:26:37.693Z,122.13
2018-11-22T20:29:07.068Z,122.00
2018-11-22T20:31:37.799Z,117.17
2018-11-22T20:34:08.249Z,137.57
2018-11-22T20:36:37.451Z,123.87
2018-11-22T20:39:11.973Z,136.23
2018-11-22T20:41:42.298Z,128.77
2018-11-22T20:44:11.535Z,130.50
2018-11-22T20:46:40.932Z,118.50
2018-11-22T20:49:10.435Z,130.20
2018-11-22T20:51:39.822Z,136.43
2018-11-22T20:54:09.216Z,134.53
2018-11-22T20:56:38.903Z,127.03
2018-11-22T20:59:08.536Z,137.83
2018-11-22T21:01:38.783Z,136.47
2018-11-22T21:04:08.231Z,133.37
2018-11-22T21:06:38.035Z,119.70
2018-11-22T21:09:09.026Z,138.50
2018-11-22T21:11:43.393Z,131.00
2018-11-22T21:14:08.735Z,134.83
2018-11-22T21:16:38.933Z,127.83
2018-11-22T21:19:08.666Z,128.83
2018-11-22T21:21:37.898Z,127.53
2018-11-22T21:24:16.708Z,121.23
2018-11-22T21:26:59.281Z,136.67
2018-11-22T21:29:33.879Z,135.00
2018-11-22T21:32:03.240Z,136.40
2018-11-22T21:34:32.651Z,125.23
2018-11-22T21:37:04.450Z,138.53
2018-11-22T21:39:33.770Z,124.37
2018-11-22T21:42:03.053Z,116.53
2018-11-22T21:44:32.497Z,116.80
2018-11-22T21:47:02.078Z,133.83
2018-11-22T21:49:35.588Z,116.17
2018-11-22T21:52:07.808Z,119.87
2018-11-22T21:54:38.167Z,139.33
2018-11-22T21:57:07.600Z,123.13
2018-11-22T21:59:36.965Z,124.43
2018-11-22T22:02:06.443Z,116.00
2018-11-22T22:04:35.802Z,123.10
2018-11-22T22:07:05.266Z,116.10
2018-11-22T22:09:34.506Z,121.33
2018-11-22T22:12:04.193Z,108.00
2018-11-22T22:14:33.425Z,117.73
2018-11-22T22:17:11.802Z,110.73
2018-11-22T22:19:41.150Z,121.37
2018-11-22T22:22:10.484Z,111.77
2018-11-22T22:24:39.893Z,131.30
2018-11-22T22:27:11.560Z,100.33
2018-11-22T22:29:41.542Z,105.13
2018-11-22T22:32:10.790Z,97.93
2018-11-22T22:34:40.255Z,94.67
2018-11-22T22:37:17.100Z,112.40
2018-11-22T22:39:47.802Z,117.57
2018-11-22T22:42:17.662Z,131.50
2018-11-22T22:44:49.476Z,112.63
2018-11-22T22:47:18.829Z,116.80
2018-11-22T22:49:48.386Z,109.83
2018-11-22T22:52:17.686Z,103.63
2018-11-22T22:54:50.815Z,120.57
2018-11-22T22:57:20.327Z,118.87
2018-11-22T22:59:49.993Z,123.93
2018-11-22T23:02:19.257Z,111.87
2018-11-22T23:04:48.597Z,123.23
2018-11-22T23:07:17.848Z,101.47
2018-11-22T23:09:47.235Z,116.73
2018-11-22T23:12:16.556Z,102.17
2018-11-22T23:14:45.899Z,115.87
2018-11-22T23:17:15.180Z,128.50
2018-11-22T23:19:44.777Z,96.17
2018-11-22T23:22:14.334Z,112.80
2018-11-22T23:24:43.649Z,111.23
2018-11-22T23:27:14.445Z,106.90
2018-11-22T23:29:43.850Z,96.77
2018-11-22T23:32:14.211Z,118.10
2018-11-22T23:34:43.630Z,113.63
2018-11-22T23:37:13.053Z,124.03
2018-11-22T23:39:42.271Z,119.83
2018-11-22T23:42:12.503Z,107.53
2018-11-22T23:44:41.866Z,121.10
2018-11-22T23:47:11.163Z,110.63
2018-11-22T23:49:40.870Z,115.83
2018-11-22T23:52:10.425Z,118.23
2018-11-22T23:54:39.790Z,125.37
2018-11-22T23:57:09.289Z,130.17
2018-11-22T23:59:39.245Z,125.00
